Aeroporto :
LOGIN :

Iscrizione | Disclaimer

   EN    FR    IT 

 










Sommario :    VFR   VFR Marginale   IFR   IFR Intensivo   IFR Molto Intensivo
Visibilità : 
Base nubi : 
>= 8 km
>= 3000ft
5 / 8 km
1000 / 3000 ft
1500m / 5 km
500 / 1000 ft
800 / 1500m
200 / 500 ft
< 800m
< 200 ft
Simboli :   Temporali  Nebbia  Neve Forte  Precipitazioni Forti  Vento > 20 kt
SIGMETs :   Varie  Temporali  Ghiacco  Turbolenza  Onda orograficha  Ceneri Vulcaniche







- Altitudine del aeroporto : 56 ft
- Codice IATA : BZR
- Carte del aeroporto


LFMU - Beziers / Vias

ULTIMO METAR :
  • 191500Z AUTO 15004KT 130V190 CAVOK 13/06 Q1022 NOSIG

METARs OBSOLETI :
  • 191430Z AUTO 14004KT 110V180 9999 OVC048 13/06 Q1023 NOSIG
  • 191400Z AUTO VRB03KT 9999 OVC048 13/07 Q1023 NOSIG
  • 191330Z AUTO VRB03KT 9999 OVC048 13/07 Q1023 NOSIG
  • 191300Z AUTO 08003KT 050V120 9999 OVC049 13/07 Q1023 NOSIG
  • 191230Z AUTO 09004KT 060V120 9999 OVC049 12/07 Q1023 NOSIG

TAF TAF LFMU
Valido dal 19 a 15 ore il 20 a 15 ore UTC


191400Z 1915/2015 VRB02KT 9999 BKN030
TEMPO 1915/1920 16012KT NSC
TEMPO 1922/2009 1200 BR BKN010
PROB40
TEMPO 2000/2009 0200 FG VV///
ATIS : +33 4 67 90 88 88
Nessun NOTAM noto per questo aeroporto.



MetMap, La meteo Aeronautica in un colpo d'occhio ! - Copyright ORBIFLY Dicembre 2007 - Disclaimer

ORBIFLY MET'MAP TEAM :

Programmazione e sviluppo : Alexandra Zaïnal
Concezione e sviluppo : Baudouin d'Aumeries
Co-Programmazione e sviluppo : Marc-Olivier Méhu
Supporto tecnico e logistico : Manuel Goepfert
Aiuto per la traduzione : Arnaldo La Scala

Contatto : metmap@orbifly.com




FONTI E CREDITI :

   NOAA